createdAt,value
2022-09-06T00:00:13.107Z,95990.25
2022-09-06T00:02:40.898Z,95978.00
2022-09-06T00:05:09.090Z,95966.41
2022-09-06T00:07:36.299Z,95957.25
2022-09-06T00:10:04.108Z,95957.03
2022-09-06T00:12:30.896Z,95959.25
2022-09-06T00:14:57.581Z,95973.56
2022-09-06T00:17:24.316Z,95957.72
2022-09-06T00:19:51.055Z,95954.97
2022-09-06T00:22:17.957Z,95936.84
2022-09-06T00:24:44.721Z,95938.31
2022-09-06T00:27:11.752Z,95935.19
2022-09-06T00:29:38.513Z,95928.16
2022-09-06T00:32:05.337Z,95921.69
2022-09-06T00:34:32.172Z,95916.22
2022-09-06T00:36:58.807Z,95910.25
2022-09-06T00:39:25.495Z,95912.28
2022-09-06T00:41:52.818Z,95911.13
2022-09-06T00:44:19.803Z,95900.47
2022-09-06T00:46:49.684Z,95898.50
2022-09-06T00:49:25.023Z,95890.03
2022-09-06T00:52:01.918Z,95886.56
2022-09-06T00:54:30.702Z,95884.25
2022-09-06T00:56:58.991Z,95878.75
2022-09-06T00:59:29.268Z,95869.13
2022-09-06T01:01:56.193Z,95868.88
2022-09-06T01:04:24.286Z,95869.41
2022-09-06T01:07:09.462Z,95869.22
2022-09-06T01:09:55.978Z,95870.22
2022-09-06T01:12:44.527Z,95869.22
2022-09-06T01:15:37.921Z,95871.19
2022-09-06T01:18:14.492Z,95862.63
2022-09-06T01:21:00.677Z,95867.75
2022-09-06T01:23:55.260Z,95867.66
2022-09-06T01:26:58.998Z,95853.97
2022-09-06T01:29:52.514Z,95835.16
2022-09-06T01:32:52.072Z,95836.47
2022-09-06T01:35:34.158Z,95836.75
2022-09-06T01:38:02.077Z,95837.19
2022-09-06T01:40:28.960Z,95832.00
2022-09-06T01:42:58.469Z,95831.03
2022-09-06T01:45:48.087Z,95831.03
2022-09-06T01:48:18.713Z,95834.78
2022-09-06T01:50:52.668Z,95828.28
2022-09-06T01:53:44.067Z,95834.44
2022-09-06T01:56:26.250Z,95830.31
2022-09-06T01:59:02.070Z,95829.59
2022-09-06T02:01:36.967Z,95828.19
2022-09-06T02:04:18.884Z,95831.31
2022-09-06T02:06:54.968Z,95843.06
2022-09-06T02:09:25.233Z,95842.38
2022-09-06T02:11:56.479Z,95843.44
2022-09-06T02:14:32.199Z,95846.66
2022-09-06T02:17:01.228Z,95837.56
2022-09-06T02:19:36.015Z,95839.97
2022-09-06T02:22:06.615Z,95834.50
2022-09-06T02:24:37.580Z,95840.69
2022-09-06T02:27:04.847Z,95844.16
2022-09-06T02:29:31.596Z,95838.63
2022-09-06T02:32:08.854Z,95825.66
2022-09-06T02:34:46.195Z,95836.56
2022-09-06T02:37:14.081Z,95841.41
2022-09-06T02:39:40.980Z,95846.50
2022-09-06T02:42:10.711Z,95844.78
2022-09-06T02:44:37.627Z,95844.78
2022-09-06T02:47:04.528Z,95837.09
2022-09-06T02:49:31.187Z,95835.59
2022-09-06T02:51:58.280Z,95841.84
2022-09-06T02:54:26.094Z,95836.03
2022-09-06T02:56:52.881Z,95836.84
2022-09-06T02:59:19.572Z,95838.97
2022-09-06T03:01:46.231Z,95833.88
2022-09-06T03:04:13.048Z,95833.06
2022-09-06T03:06:39.950Z,95828.97
2022-09-06T03:09:06.731Z,95824.75
2022-09-06T03:11:33.842Z,95821.53
2022-09-06T03:14:00.399Z,95817.56
2022-09-06T03:16:27.153Z,95812.47
2022-09-06T03:18:53.940Z,95821.84
2022-09-06T03:21:20.539Z,95821.41
2022-09-06T03:23:47.472Z,95814.63
2022-09-06T03:26:14.131Z,95811.84
2022-09-06T03:28:41.044Z,95809.09
2022-09-06T03:31:07.848Z,95808.63
2022-09-06T03:33:34.587Z,95818.69
2022-09-06T03:36:01.865Z,95815.81
2022-09-06T03:38:29.516Z,95816.75
2022-09-06T03:40:56.793Z,95819.50
2022-09-06T03:43:25.171Z,95813.81
2022-09-06T03:45:54.885Z,95813.00
2022-09-06T03:48:24.193Z,95817.63
2022-09-06T03:50:54.583Z,95812.56
2022-09-06T03:53:23.005Z,95809.09
2022-09-06T03:55:51.920Z,95819.59
2022-09-06T03:58:20.661Z,95817.53
2022-09-06T04:00:47.702Z,95816.84
2022-09-06T04:03:15.119Z,95817.13
2022-09-06T04:05:46.629Z,95815.44
2022-09-06T04:08:14.442Z,95812.66
2022-09-06T04:10:41.112Z,95814.22
2022-09-06T04:13:08.059Z,95816.91
2022-09-06T04:15:37.276Z,95826.63
2022-09-06T04:18:09.033Z,95830.50
2022-09-06T04:20:36.006Z,95830.31
2022-09-06T04:23:02.682Z,95836.91
2022-09-06T04:25:29.300Z,95828.50
2022-09-06T04:27:55.988Z,95826.56
2022-09-06T04:30:22.848Z,95829.59
2022-09-06T04:32:49.479Z,95837.97
2022-09-06T04:35:16.373Z,95836.47
2022-09-06T04:37:44.063Z,95832.53
2022-09-06T04:40:11.202Z,95838.06
2022-09-06T04:42:37.964Z,95842.34
2022-09-06T04:45:06.048Z,95835.66
2022-09-06T04:47:33.056Z,95831.00
2022-09-06T04:49:59.656Z,95842.19
2022-09-06T04:52:30.041Z,95841.38
2022-09-06T04:54:57.268Z,95849.78
2022-09-06T04:57:23.959Z,95839.41
2022-09-06T04:59:50.592Z,95844.69
2022-09-06T05:02:17.220Z,95841.59
2022-09-06T05:04:44.024Z,95843.19
2022-09-06T05:07:10.764Z,95830.50
2022-09-06T05:09:37.793Z,95840.06
2022-09-06T05:12:06.039Z,95838.44
2022-09-06T05:14:32.745Z,95842.56
2022-09-06T05:16:59.473Z,95842.56
2022-09-06T05:19:26.117Z,95844.25
2022-09-06T05:21:52.769Z,95841.13
2022-09-06T05:24:19.532Z,95848.72
2022-09-06T05:26:46.315Z,95848.44
2022-09-06T05:29:13.141Z,95851.38
2022-09-06T05:31:40.086Z,95855.84
2022-09-06T05:34:06.729Z,95866.66
2022-09-06T05:36:33.381Z,95863.84
2022-09-06T05:39:00.512Z,95861.34
2022-09-06T05:41:27.760Z,95866.69
2022-09-06T05:43:54.698Z,95862.28
2022-09-06T05:46:21.978Z,95866.69
2022-09-06T05:48:53.436Z,95864.44
2022-09-06T05:51:20.857Z,95862.31
2022-09-06T05:53:49.863Z,95854.81
2022-09-06T05:56:17.139Z,95856.50
2022-09-06T05:58:43.917Z,95862.41
2022-09-06T06:01:21.573Z,95863.38
2022-09-06T06:03:55.876Z,95860.03
2022-09-06T06:06:23.691Z,95855.78
2022-09-06T06:08:50.635Z,95861.97
2022-09-06T06:11:18.458Z,95855.28
2022-09-06T06:13:45.698Z,95864.25
2022-09-06T06:16:15.727Z,95861.53
2022-09-06T06:18:42.845Z,95867.66
2022-09-06T06:21:19.550Z,95866.53
2022-09-06T06:23:47.754Z,95872.31
2022-09-06T06:26:14.598Z,95867.16
2022-09-06T06:28:42.338Z,95864.84
2022-09-06T06:31:11.060Z,95867.28
2022-09-06T06:33:38.851Z,95868.19
2022-09-06T06:36:08.269Z,95866.63
2022-09-06T06:38:37.585Z,95862.28
2022-09-06T06:41:06.956Z,95865.91
2022-09-06T06:43:36.506Z,95860.31
2022-09-06T06:46:09.981Z,95865.50
2022-09-06T06:48:41.928Z,95859.66
2022-09-06T06:51:09.563Z,95874.59
2022-09-06T06:53:36.619Z,95864.88
2022-09-06T06:56:42.541Z,95864.97
2022-09-06T06:59:10.382Z,95867.31
2022-09-06T07:01:38.458Z,95866.50
2022-09-06T07:04:06.070Z,95862.88
2022-09-06T07:12:25.737Z,95857.47
2022-09-06T07:14:53.806Z,95855.06
2022-09-06T07:17:20.483Z,95847.97
2022-09-06T07:22:33.748Z,95846.44
2022-09-06T07:25:01.774Z,95841.63
2022-09-06T07:30:15.851Z,95841.69
2022-09-06T07:32:42.936Z,95841.31
2022-09-06T07:35:09.785Z,95848.81
2022-09-06T07:37:36.774Z,95841.28
2022-09-06T07:40:04.836Z,95841.31
2022-09-06T07:42:36.393Z,95845.28
2022-09-06T07:45:04.861Z,95848.94
2022-09-06T07:53:11.894Z,95862.88
2022-09-06T07:55:42.625Z,95859.31
2022-09-06T07:58:09.278Z,95865.63
2022-09-06T08:00:42.545Z,95864.13
2022-09-06T08:03:09.924Z,95856.59
2022-09-06T08:11:10.099Z,95856.25
2022-09-06T08:13:37.518Z,95864.97
2022-09-06T08:16:07.287Z,95855.91
2022-09-06T08:18:36.948Z,95864.75
2022-09-06T08:21:13.113Z,95865.25
2022-09-06T08:23:51.239Z,95861.28
2022-09-06T08:26:20.990Z,95868.91
2022-09-06T08:28:47.790Z,95860.59
2022-09-06T08:31:17.229Z,95856.28
2022-09-06T08:33:48.022Z,95864.38
2022-09-06T08:36:19.289Z,95869.94
2022-09-06T08:38:46.208Z,95871.16
2022-09-06T08:41:17.106Z,95858.47
2022-09-06T08:47:02.654Z,95862.91
2022-09-06T08:49:55.258Z,95864.56
2022-09-06T08:52:49.419Z,95876.56
2022-09-06T08:55:24.431Z,95869.81
2022-09-06T08:58:08.826Z,95871.81
2022-09-06T09:00:38.621Z,95872.22
2022-09-06T09:03:25.468Z,95873.81
2022-09-06T09:05:53.852Z,95867.44
2022-09-06T09:08:41.373Z,95861.03
2022-09-06T09:11:13.900Z,95865.78
2022-09-06T09:14:06.252Z,95860.63
2022-09-06T09:16:34.226Z,95861.03
2022-09-06T09:19:04.103Z,95852.31
2022-09-06T09:21:36.636Z,95857.13
2022-09-06T09:24:11.929Z,95845.94
2022-09-06T09:26:59.445Z,95850.75
2022-09-06T09:29:29.479Z,95851.56
2022-09-06T09:34:34.203Z,95849.97
2022-09-06T09:37:45.998Z,95844.41
2022-09-06T09:40:18.068Z,95842.78
2022-09-06T09:42:44.775Z,95838.78
2022-09-06T09:45:20.308Z,95840.75
2022-09-06T09:47:47.968Z,95834.72
2022-09-06T09:50:35.410Z,95837.91
2022-09-06T09:53:11.566Z,95829.84
2022-09-06T09:55:39.223Z,95841.81
2022-09-06T09:58:17.426Z,95831.38
2022-09-06T10:00:44.327Z,95835.03
2022-09-06T10:03:20.143Z,95837.78
2022-09-06T10:06:03.366Z,95840.94
2022-09-06T10:08:33.997Z,95854.53
2022-09-06T10:11:01.055Z,95848.84
2022-09-06T10:13:30.470Z,95850.81
2022-09-06T10:16:03.410Z,95857.66
2022-09-06T10:18:41.980Z,95845.66
2022-09-06T10:21:19.084Z,95849.66
2022-09-06T10:26:56.433Z,95844.72
2022-09-06T10:29:29.326Z,95839.41
2022-09-06T10:32:30.459Z,95844.47
2022-09-06T10:35:14.900Z,95844.94
2022-09-06T10:37:48.972Z,95853.97
2022-09-06T10:40:33.526Z,95855.56
2022-09-06T10:43:01.760Z,95845.97
2022-09-06T10:45:29.525Z,95847.53
2022-09-06T10:48:02.657Z,95834.66
2022-09-06T10:50:46.149Z,95847.34
2022-09-06T10:53:21.899Z,95846.56
2022-09-06T10:56:00.889Z,95843.72
2022-09-06T11:01:29.139Z,95841.72
2022-09-06T11:04:04.347Z,95832.84
2022-09-06T11:06:44.553Z,95834.38
2022-09-06T11:09:38.675Z,95829.44
2022-09-06T11:12:42.771Z,95823.81
2022-09-06T11:15:13.453Z,95819.28
2022-09-06T11:17:53.271Z,95831.28
2022-09-06T11:20:35.060Z,95826.84
2022-09-06T11:23:32.642Z,95825.19
2022-09-06T11:26:05.185Z,95818.16
2022-09-06T11:28:47.498Z,95824.91
2022-09-06T11:34:34.885Z,95819.66
2022-09-06T11:37:05.083Z,95811.19
2022-09-06T11:42:41.851Z,95807.91
2022-09-06T11:45:08.629Z,95806.66
2022-09-06T11:47:45.610Z,95807.97
2022-09-06T11:50:21.558Z,95810.28
2022-09-06T11:53:00.576Z,95814.88
2022-09-06T11:55:38.182Z,95804.97
2022-09-06T11:58:19.240Z,95804.34
2022-09-06T12:01:07.172Z,95810.66
2022-09-06T12:06:31.811Z,95803.25
2022-09-06T12:09:00.539Z,95801.13
2022-09-06T12:11:42.692Z,95797.19
2022-09-06T12:14:31.361Z,95797.72
2022-09-06T12:16:58.116Z,95796.22
2022-09-06T12:19:44.689Z,95801.25
2022-09-06T12:22:26.755Z,95803.88
2022-09-06T12:24:54.954Z,95806.13
2022-09-06T12:27:23.230Z,95802.28
2022-09-06T12:30:01.073Z,95799.59
2022-09-06T12:32:37.225Z,95801.69
2022-09-06T12:38:16.023Z,95793.16
2022-09-06T12:40:49.528Z,95785.44
2022-09-06T12:43:18.234Z,95793.44
2022-09-06T12:45:47.016Z,95778.59
2022-09-06T12:48:33.600Z,95784.66
2022-09-06T12:51:08.220Z,95776.72
2022-09-06T12:53:35.102Z,95779.78
2022-09-06T12:56:12.662Z,95778.19
2022-09-06T12:58:39.825Z,95763.50
2022-09-06T13:01:15.700Z,95768.66
2022-09-06T13:03:56.468Z,95761.78
2022-09-06T13:06:27.393Z,95757.91
2022-09-06T13:08:57.201Z,95753.00
2022-09-06T13:11:35.516Z,95752.03
2022-09-06T13:14:14.016Z,95757.00
2022-09-06T13:16:47.806Z,95760.09
2022-09-06T13:19:19.607Z,95738.66
2022-09-06T13:21:46.976Z,95748.41
2022-09-06T13:24:43.381Z,95739.38
2022-09-06T13:27:24.762Z,95743.13
2022-09-06T13:30:10.565Z,95741.13
2022-09-06T13:32:47.576Z,95738.00
2022-09-06T13:35:24.196Z,95732.88
2022-09-06T13:37:51.039Z,95727.88
2022-09-06T13:40:59.853Z,95732.16
2022-09-06T13:43:28.156Z,95724.97
2022-09-06T13:46:09.900Z,95724.13
2022-09-06T13:48:36.897Z,95711.84
2022-09-06T13:51:05.811Z,95714.78
2022-09-06T13:53:33.248Z,95705.59
2022-09-06T13:55:59.934Z,95707.72
2022-09-06T13:58:28.326Z,95706.22
2022-09-06T14:00:55.183Z,95704.63
2022-09-06T14:03:29.192Z,95698.81
2022-09-06T14:05:55.957Z,95699.75
2022-09-06T14:08:23.176Z,95698.44
2022-09-06T14:10:51.591Z,95685.19
2022-09-06T14:13:19.319Z,95686.72
2022-09-06T14:15:47.712Z,95688.03
2022-09-06T14:18:15.469Z,95683.28
2022-09-06T14:20:42.764Z,95682.75
2022-09-06T14:23:09.721Z,95677.56
2022-09-06T14:25:38.739Z,95676.75
2022-09-06T14:28:05.751Z,95680.47
2022-09-06T14:30:32.665Z,95677.34
2022-09-06T14:32:59.495Z,95672.94
2022-09-06T14:35:27.744Z,95676.16
2022-09-06T14:37:54.375Z,95664.84
2022-09-06T14:40:21.081Z,95668.22
2022-09-06T14:42:50.529Z,95658.56
2022-09-06T14:45:17.787Z,95661.75
2022-09-06T14:47:44.561Z,95662.41
2022-09-06T14:50:11.278Z,95655.69
2022-09-06T14:52:38.129Z,95661.78
2022-09-06T14:55:05.418Z,95660.28
2022-09-06T14:57:32.241Z,95657.13
2022-09-06T14:59:59.290Z,95653.50
2022-09-06T15:02:29.072Z,95653.94
2022-09-06T15:04:56.187Z,95655.91
2022-09-06T15:07:22.888Z,95649.19
2022-09-06T15:09:51.140Z,95647.88
2022-09-06T15:12:18.227Z,95647.69
2022-09-06T15:14:45.013Z,95642.66
2022-09-06T15:17:11.952Z,95639.94
2022-09-06T15:19:38.947Z,95637.16
2022-09-06T15:22:07.266Z,95640.44
2022-09-06T15:24:34.309Z,95641.00
2022-09-06T15:27:02.243Z,95634.06
2022-09-06T15:29:29.120Z,95633.22
2022-09-06T15:31:56.219Z,95627.28
2022-09-06T15:34:25.493Z,95623.97
2022-09-06T15:36:53.513Z,95624.91
2022-09-06T15:39:20.762Z,95610.94
2022-09-06T15:41:50.056Z,95616.94
2022-09-06T15:44:19.322Z,95616.22
2022-09-06T15:47:00.899Z,95609.59
2022-09-06T15:49:31.786Z,95604.91
2022-09-06T15:52:01.059Z,95607.88
2022-09-06T15:54:47.839Z,95606.88
2022-09-06T15:57:16.614Z,95602.66
2022-09-06T15:59:44.131Z,95598.69
2022-09-06T16:02:13.128Z,95601.94
2022-09-06T16:04:40.026Z,95594.97
2022-09-06T16:07:07.345Z,95598.41
2022-09-06T16:09:34.470Z,95593.72
2022-09-06T16:12:01.150Z,95594.38
2022-09-06T16:14:29.240Z,95591.91
2022-09-06T16:16:57.518Z,95585.44
2022-09-06T16:19:26.017Z,95592.34
2022-09-06T16:21:52.949Z,95593.94
2022-09-06T16:24:19.696Z,95588.97
2022-09-06T16:26:46.982Z,95576.56
2022-09-06T16:29:16.543Z,95578.97
2022-09-06T16:31:43.474Z,95581.47
2022-09-06T16:34:11.992Z,95581.16
2022-09-06T16:36:39.215Z,95587.19
2022-09-06T16:39:07.529Z,95591.88
2022-09-06T16:41:40.647Z,95588.84
2022-09-06T16:44:09.276Z,95584.53
2022-09-06T16:46:40.260Z,95591.31
2022-09-06T16:49:07.176Z,95588.06
2022-09-06T16:51:33.995Z,95586.03
2022-09-06T16:54:01.371Z,95582.56
2022-09-06T16:56:33.570Z,95583.56
2022-09-06T16:59:03.480Z,95584.28
2022-09-06T17:01:32.438Z,95585.34
2022-09-06T17:04:02.331Z,95587.16
2022-09-06T17:06:30.206Z,95579.41
2022-09-06T17:09:00.760Z,95575.44
2022-09-06T17:11:28.539Z,95581.44
2022-09-06T17:13:56.593Z,95581.38
2022-09-06T17:16:42.176Z,95587.00
2022-09-06T17:19:09.366Z,95583.47
2022-09-06T17:21:36.245Z,95583.88
2022-09-06T17:24:04.784Z,95573.94
2022-09-06T17:26:34.210Z,95572.34
2022-09-06T17:29:01.409Z,95569.97
2022-09-06T17:31:28.782Z,95559.63
2022-09-06T17:33:55.701Z,95549.53
2022-09-06T17:36:29.884Z,95539.88
2022-09-06T17:39:07.482Z,95539.34
2022-09-06T17:41:43.325Z,95538.00
2022-09-06T17:44:11.719Z,95533.72
2022-09-06T17:46:47.602Z,95538.97
2022-09-06T17:49:18.898Z,95538.63
2022-09-06T17:51:47.535Z,95548.25
2022-09-06T17:54:15.167Z,95549.03
2022-09-06T17:56:41.899Z,95572.25
2022-09-06T17:59:11.147Z,95561.88
2022-09-06T18:01:38.715Z,95560.47
2022-09-06T18:04:06.346Z,95555.03
2022-09-06T18:06:34.365Z,95561.59
2022-09-06T18:09:14.780Z,95574.78
2022-09-06T18:11:42.080Z,95570.41
2022-09-06T18:14:11.725Z,95571.63
2022-09-06T18:16:40.607Z,95574.78
2022-09-06T18:19:08.634Z,95583.53
2022-09-06T18:21:38.057Z,95575.56
2022-09-06T18:24:05.504Z,95566.38
2022-09-06T18:26:33.314Z,95578.91
2022-09-06T18:29:02.811Z,95588.34
2022-09-06T18:31:29.635Z,95581.09
2022-09-06T18:33:59.157Z,95578.69
2022-09-06T18:36:31.132Z,95567.63
2022-09-06T18:39:02.622Z,95570.94
2022-09-06T18:41:55.698Z,95562.63
2022-09-06T18:44:22.600Z,95556.22
2022-09-06T18:46:49.993Z,95557.72
2022-09-06T18:49:17.632Z,95556.91
2022-09-06T18:51:45.737Z,95558.97
2022-09-06T18:54:12.458Z,95562.16
2022-09-06T18:56:39.117Z,95565.41
2022-09-06T18:59:06.912Z,95559.38
2022-09-06T19:01:35.327Z,95563.44
2022-09-06T19:04:05.220Z,95554.69
2022-09-06T19:06:33.415Z,95553.13
2022-09-06T19:09:03.229Z,95550.78
2022-09-06T19:11:30.256Z,95545.22
2022-09-06T19:13:57.752Z,95522.94
2022-09-06T19:16:26.410Z,95527.22
2022-09-06T19:18:56.081Z,95522.97
2022-09-06T19:21:25.720Z,95516.69
2022-09-06T19:24:01.493Z,95515.97
2022-09-06T19:26:31.657Z,95506.03
2022-09-06T19:29:00.966Z,95504.47
2022-09-06T19:31:33.908Z,95490.59
2022-09-06T19:34:00.905Z,95488.94
2022-09-06T19:36:28.949Z,95495.72
2022-09-06T19:39:04.132Z,95496.16
2022-09-06T19:41:33.301Z,95497.00
2022-09-06T19:44:00.577Z,95507.41
2022-09-06T19:46:27.953Z,95511.78
2022-09-06T19:48:58.430Z,95519.38
2022-09-06T19:51:25.140Z,95513.78
2022-09-06T19:54:00.173Z,95519.78
2022-09-06T19:56:31.968Z,95520.94
2022-09-06T19:59:01.028Z,95518.53
2022-09-06T20:01:31.185Z,95520.06
2022-09-06T20:03:58.809Z,95516.09
2022-09-06T20:06:26.870Z,95515.31
2022-09-06T20:08:55.552Z,95506.50
2022-09-06T20:11:24.905Z,95510.06
2022-09-06T20:13:52.188Z,95503.28
2022-09-06T20:16:21.221Z,95506.47
2022-09-06T20:18:48.621Z,95501.69
2022-09-06T20:21:17.839Z,95496.91
2022-09-06T20:23:51.184Z,95495.31
2022-09-06T20:26:18.597Z,95494.91
2022-09-06T20:28:46.097Z,95508.09
2022-09-06T20:31:17.666Z,95510.13
2022-09-06T20:33:49.502Z,95510.91
2022-09-06T20:36:17.656Z,95504.13
2022-09-06T20:38:46.265Z,95508.94
2022-09-06T20:41:14.129Z,95513.72
2022-09-06T20:43:41.805Z,95509.75
2022-09-06T20:46:13.155Z,95504.16
2022-09-06T20:48:44.438Z,95501.78
2022-09-06T20:51:15.917Z,95512.97
2022-09-06T20:53:43.089Z,95503.41
2022-09-06T20:56:15.457Z,95506.19
2022-09-06T20:58:42.796Z,95506.19
2022-09-06T21:01:19.663Z,95504.59
2022-09-06T21:03:46.503Z,95501.41
2022-09-06T21:06:13.452Z,95501.03
2022-09-06T21:08:42.869Z,95506.59
2022-09-06T21:11:10.818Z,95497.03
2022-09-06T21:13:38.110Z,95502.63
2022-09-06T21:16:06.150Z,95500.22
2022-09-06T21:18:34.038Z,95495.44
2022-09-06T21:21:08.364Z,95495.44
2022-09-06T21:23:37.194Z,95493.44
2022-09-06T21:26:07.970Z,95503.78
2022-09-06T21:28:36.759Z,95508.91
2022-09-06T21:31:23.313Z,95510.50
2022-09-06T21:33:59.106Z,95535.94
2022-09-06T21:36:31.193Z,95542.22
2022-09-06T21:39:00.110Z,95589.22
2022-09-06T21:41:27.499Z,95602.66
2022-09-06T21:43:56.298Z,95567.78
2022-09-06T21:46:30.301Z,95601.81
2022-09-06T21:49:01.738Z,95603.38
2022-09-06T21:51:28.603Z,95611.25
2022-09-06T21:53:57.129Z,95618.34
2022-09-06T21:56:25.017Z,95607.94
2022-09-06T21:58:56.935Z,95592.41
2022-09-06T22:01:25.068Z,95568.50
2022-09-06T22:03:52.259Z,95565.66
2022-09-06T22:06:22.565Z,95549.22
2022-09-06T22:08:49.811Z,95542.56
2022-09-06T22:11:19.344Z,95536.72
2022-09-06T22:13:48.305Z,95531.00
2022-09-06T22:16:18.457Z,95542.16
2022-09-06T22:18:45.745Z,95547.56
2022-09-06T22:21:20.339Z,95558.28
2022-09-06T22:23:51.157Z,95559.72
2022-09-06T22:26:18.679Z,95556.75
2022-09-06T22:28:46.365Z,95567.03
2022-09-06T22:31:13.354Z,95565.97
2022-09-06T22:33:40.079Z,95559.63
2022-09-06T22:36:07.571Z,95556.75
2022-09-06T22:38:34.945Z,95553.72
2022-09-06T22:41:01.703Z,95547.31
2022-09-06T22:43:28.438Z,95540.59
2022-09-06T22:46:02.277Z,95547.00
2022-09-06T22:48:29.082Z,95538.50
2022-09-06T22:50:56.041Z,95527.47
2022-09-06T22:53:23.037Z,95517.88
2022-09-06T22:55:49.726Z,95510.56
2022-09-06T22:58:16.544Z,95522.81
2022-09-06T23:00:43.408Z,95530.34
2022-09-06T23:03:10.467Z,95535.66
2022-09-06T23:05:37.095Z,95518.97
2022-09-06T23:08:04.416Z,95527.47
2022-09-06T23:10:32.216Z,95535.41
2022-09-06T23:12:59.299Z,95523.84
2022-09-06T23:15:26.420Z,95523.03
2022-09-06T23:17:53.428Z,95530.38
2022-09-06T23:20:20.312Z,95529.81
2022-09-06T23:22:48.239Z,95536.03
2022-09-06T23:25:14.998Z,95539.97
2022-09-06T23:27:41.735Z,95533.94
2022-09-06T23:30:09.170Z,95528.84
2022-09-06T23:32:35.818Z,95512.31
2022-09-06T23:35:02.618Z,95507.19
2022-09-06T23:37:29.432Z,95509.22
2022-09-06T23:39:56.181Z,95512.88
2022-09-06T23:42:23.143Z,95518.22
2022-09-06T23:44:54.400Z,95526.88
2022-09-06T23:47:21.086Z,95534.03
2022-09-06T23:49:47.769Z,95537.22
2022-09-06T23:52:14.459Z,95534.75
2022-09-06T23:54:41.203Z,95523.59
2022-09-06T23:57:07.966Z,95529.84
2022-09-06T23:59:35.012Z,95521.19
